createdAt,value
2024-01-11T00:02:23.157Z,101118.31
2024-01-11T00:04:55.167Z,101083.53
2024-01-11T00:07:27.140Z,101097.16
2024-01-11T00:09:59.014Z,101064.06
2024-01-11T00:12:31.013Z,101066.75
2024-01-11T00:15:03.401Z,101032.94
2024-01-11T00:17:36.089Z,101082.19
2024-01-11T00:20:08.681Z,101059.25
2024-01-11T00:22:40.688Z,101043.13
2024-01-11T00:25:12.570Z,101071.97
2024-01-11T00:27:44.524Z,101066.84
2024-01-11T00:30:16.459Z,101043.09
2024-01-11T00:32:48.512Z,101072.91
2024-01-11T00:35:20.681Z,101064.47
2024-01-11T00:37:52.610Z,101070.44
2024-01-11T00:40:24.709Z,101044.19
2024-01-11T00:42:56.592Z,101033.22
2024-01-11T00:45:28.494Z,101022.91
2024-01-11T00:48:00.613Z,101050.13
2024-01-11T00:50:33.207Z,101066.28
2024-01-11T00:53:05.237Z,101058.66
2024-01-11T00:55:37.093Z,101051.84
2024-01-11T00:58:09.035Z,101062.03
2024-01-11T01:00:41.044Z,101017.84
2024-01-11T01:03:12.991Z,101075.56
2024-01-11T01:05:45.231Z,101021.41
2024-01-11T01:08:17.265Z,101066.34
2024-01-11T01:10:49.185Z,101062.91
2024-01-11T01:13:21.076Z,101056.06
2024-01-11T01:15:53.098Z,101075.63
2024-01-11T01:18:25.057Z,101049.41
2024-01-11T01:20:57.486Z,101049.50
2024-01-11T01:23:29.429Z,101050.44
2024-01-11T01:26:02.477Z,101006.41
2024-01-11T01:28:36.145Z,101025.94
2024-01-11T01:31:08.115Z,101038.53
2024-01-11T01:33:42.180Z,101059.75
2024-01-11T01:36:14.577Z,101046.19
2024-01-11T01:38:47.110Z,101052.00
2024-01-11T01:41:19.127Z,101053.66
2024-01-11T01:43:51.013Z,101081.75
2024-01-11T01:46:26.516Z,101067.16
2024-01-11T01:49:00.210Z,101089.31
2024-01-11T01:51:33.529Z,101028.47
2024-01-11T01:54:05.919Z,101050.44
2024-01-11T01:56:38.107Z,101054.75
2024-01-11T01:59:12.185Z,101025.06
2024-01-11T02:01:44.407Z,101017.53
2024-01-11T02:04:16.888Z,101020.22
2024-01-11T02:06:49.126Z,101001.50
2024-01-11T02:09:21.028Z,100958.31
2024-01-11T02:11:54.877Z,100991.56
2024-01-11T02:14:27.474Z,100955.09
2024-01-11T02:16:59.378Z,100988.84
2024-01-11T02:19:31.364Z,101016.78
2024-01-11T02:22:12.376Z,100995.75
2024-01-11T02:24:44.280Z,101002.53
2024-01-11T02:27:16.240Z,101004.16
2024-01-11T02:29:48.438Z,100968.63
2024-01-11T02:32:21.079Z,100977.09
2024-01-11T02:34:53.780Z,101016.88
2024-01-11T02:37:25.736Z,101009.34
2024-01-11T02:39:58.109Z,100970.31
2024-01-11T02:42:30.054Z,100982.13
2024-01-11T02:45:02.187Z,100952.63
2024-01-11T02:47:34.414Z,100972.94
2024-01-11T02:50:08.787Z,101005.13
2024-01-11T02:52:40.899Z,101003.41
2024-01-11T02:55:12.744Z,101032.03
2024-01-11T02:57:44.738Z,100975.41
2024-01-11T03:00:16.714Z,100991.50
2024-01-11T03:02:48.913Z,100969.38
2024-01-11T03:05:20.936Z,100988.91
2024-01-11T03:07:52.953Z,100955.97
2024-01-11T03:10:25.254Z,100961.03
2024-01-11T03:12:59.414Z,100988.09
2024-01-11T03:15:31.355Z,100990.56
2024-01-11T03:18:03.574Z,101023.56
2024-01-11T03:20:35.987Z,101019.41
2024-01-11T03:23:07.968Z,100973.75
2024-01-11T03:25:39.843Z,100934.00
2024-01-11T03:28:11.735Z,100937.44
2024-01-11T03:30:44.459Z,100965.31
2024-01-11T03:33:16.565Z,100947.50
2024-01-11T03:35:48.601Z,100983.16
2024-01-11T03:38:20.671Z,100994.06
2024-01-11T03:40:53.373Z,100982.28
2024-01-11T03:43:25.481Z,100967.91
2024-01-11T03:45:57.348Z,100967.03
2024-01-11T03:48:29.409Z,100966.16
2024-01-11T03:51:01.534Z,100951.69
2024-01-11T03:53:38.256Z,100948.38
2024-01-11T03:56:10.692Z,100937.19
2024-01-11T03:58:46.231Z,100909.44
2024-01-11T04:01:18.489Z,100933.78
2024-01-11T04:03:50.864Z,100907.63
2024-01-11T04:06:25.212Z,100912.84
2024-01-11T04:08:58.110Z,100875.47
2024-01-11T04:11:30.556Z,100895.88
2024-01-11T04:14:02.498Z,100904.34
2024-01-11T04:16:34.681Z,100919.56
2024-01-11T04:19:06.662Z,100903.69
2024-01-11T04:21:41.760Z,100880.00
2024-01-11T04:24:13.596Z,100905.31
2024-01-11T04:26:45.600Z,100923.88
2024-01-11T04:29:17.596Z,100927.31
2024-01-11T04:31:49.728Z,100922.28
2024-01-11T04:34:21.622Z,100923.97
2024-01-11T04:36:53.622Z,100922.28
2024-01-11T04:39:25.493Z,100875.72
2024-01-11T04:41:57.335Z,100890.94
2024-01-11T04:44:29.269Z,100919.75
2024-01-11T04:47:01.640Z,100923.06
2024-01-11T04:49:33.517Z,100921.47
2024-01-11T04:52:06.329Z,100902.81
2024-01-11T04:54:39.212Z,100874.06
2024-01-11T04:57:11.124Z,100901.88
2024-01-11T04:59:43.040Z,100839.97
2024-01-11T05:02:14.989Z,100904.47
2024-01-11T05:04:46.917Z,100896.81
2024-01-11T05:07:18.906Z,100905.44
2024-01-11T05:09:50.759Z,100902.84
2024-01-11T05:12:22.641Z,100918.16
2024-01-11T05:14:54.477Z,100879.97
2024-01-11T05:17:28.103Z,100913.97
2024-01-11T05:20:00.378Z,100867.25
2024-01-11T05:22:32.449Z,100883.41
2024-01-11T05:25:04.552Z,100897.88
2024-01-11T05:27:36.411Z,100875.81
2024-01-11T05:30:09.109Z,100901.38
2024-01-11T05:32:41.356Z,100884.28
2024-01-11T05:35:13.821Z,100865.81
2024-01-11T05:37:45.812Z,100821.81
2024-01-11T05:40:18.079Z,100863.28
2024-01-11T05:42:50.107Z,100832.03
2024-01-11T05:45:27.143Z,100827.63
2024-01-11T05:48:04.380Z,100839.50
2024-01-11T05:50:36.294Z,100842.19
2024-01-11T05:53:08.193Z,100840.44
2024-01-11T05:55:41.034Z,100798.97
2024-01-11T05:58:13.128Z,100804.94
2024-01-11T06:00:45.140Z,100814.31
2024-01-11T06:03:17.112Z,100790.66
2024-01-11T06:05:49.163Z,100823.69
2024-01-11T06:08:21.113Z,100815.25
2024-01-11T06:10:53.401Z,100823.75
2024-01-11T06:13:25.615Z,100813.63
2024-01-11T06:15:57.599Z,100809.41
2024-01-11T06:18:29.768Z,100813.59
2024-01-11T06:21:01.705Z,100789.19
2024-01-11T06:23:33.747Z,100768.84
2024-01-11T06:26:05.985Z,100805.31
2024-01-11T06:28:37.974Z,100795.13
2024-01-11T06:31:11.747Z,100799.28
2024-01-11T06:33:45.140Z,100803.56
2024-01-11T06:36:17.990Z,100783.28
2024-01-11T06:38:49.841Z,100804.38
2024-01-11T06:41:21.942Z,100714.84
2024-01-11T06:43:53.844Z,100785.00
2024-01-11T06:46:25.710Z,100756.28
2024-01-11T06:48:57.860Z,100800.22
2024-01-11T06:51:29.829Z,100726.69
2024-01-11T06:54:02.604Z,100758.88
2024-01-11T06:56:34.672Z,100791.03
2024-01-11T06:59:06.720Z,100782.59
2024-01-11T07:01:38.700Z,100791.88
2024-01-11T07:04:10.621Z,100787.66
2024-01-11T07:06:42.848Z,100775.00
2024-01-11T07:09:14.904Z,100784.31
2024-01-11T07:11:46.883Z,100771.66
2024-01-11T07:14:18.952Z,100780.09
2024-01-11T07:16:51.142Z,100776.69
2024-01-11T07:19:23.468Z,100762.34
2024-01-11T07:21:55.462Z,100737.88
2024-01-11T07:24:27.596Z,100727.75
2024-01-11T07:26:59.461Z,100743.81
2024-01-11T07:29:31.537Z,100775.91
2024-01-11T07:32:05.603Z,100771.69
2024-01-11T07:34:38.340Z,100754.81
2024-01-11T07:37:10.451Z,100757.38
2024-01-11T07:39:42.434Z,100764.09
2024-01-11T07:42:15.748Z,100764.97
2024-01-11T07:44:47.913Z,100721.91
2024-01-11T07:47:19.810Z,100704.97
2024-01-11T07:49:51.701Z,100707.53
2024-01-11T07:52:23.627Z,100701.63
2024-01-11T07:54:55.690Z,100755.69
2024-01-11T07:57:27.551Z,100764.97
2024-01-11T08:00:00.721Z,100721.88
2024-01-11T08:02:33.082Z,100740.47
2024-01-11T08:05:05.722Z,100744.69
2024-01-11T08:07:37.840Z,100766.63
2024-01-11T08:10:12.726Z,100783.53
2024-01-11T08:12:44.680Z,100782.69
2024-01-11T08:15:16.648Z,100799.59
2024-01-11T08:17:49.285Z,100744.69
2024-01-11T08:20:21.368Z,100796.22
2024-01-11T08:22:55.745Z,100757.34
2024-01-11T08:25:27.626Z,100782.69
2024-01-11T08:27:59.769Z,100741.31
2024-01-11T08:30:31.769Z,100800.41
2024-01-11T08:33:05.424Z,100739.63
2024-01-11T08:35:38.008Z,100789.41
2024-01-11T08:38:10.121Z,100761.56
2024-01-11T08:40:42.306Z,100786.91
2024-01-11T08:43:14.676Z,100788.59
2024-01-11T08:45:48.242Z,100774.22
2024-01-11T08:48:20.356Z,100795.34
2024-01-11T08:50:55.554Z,100771.69
2024-01-11T08:53:27.655Z,100795.34
2024-01-11T08:55:59.560Z,100781.00
2024-01-11T08:58:31.475Z,100770.78
2024-01-11T09:01:04.409Z,100776.72
2024-01-11T09:03:37.094Z,100797.84
2024-01-11T09:06:09.374Z,100779.25
2024-01-11T09:08:43.581Z,100807.16
2024-01-11T09:11:18.175Z,100787.72
2024-01-11T09:13:50.139Z,100795.31
2024-01-11T09:16:21.977Z,100790.22
2024-01-11T09:18:54.006Z,100755.59
2024-01-11T09:21:27.265Z,100786.78
2024-01-11T09:23:59.242Z,100785.94
2024-01-11T09:26:34.269Z,100768.19
2024-01-11T09:29:06.310Z,100743.63
2024-01-11T09:31:38.287Z,100755.50
2024-01-11T09:34:10.387Z,100748.69
2024-01-11T09:36:42.461Z,100726.75
2024-01-11T09:39:18.044Z,100745.16
2024-01-11T09:42:00.523Z,100689.50
2024-01-11T09:44:32.585Z,100700.47
2024-01-11T09:47:05.544Z,100722.28
2024-01-11T09:49:39.419Z,100723.16
2024-01-11T09:52:14.624Z,100705.44
2024-01-11T09:54:47.163Z,100719.53
2024-01-11T09:57:26.460Z,100702.41
2024-01-11T09:59:59.238Z,100673.78
2024-01-11T10:02:31.325Z,100717.69
2024-01-11T10:05:03.401Z,100691.41
2024-01-11T10:07:35.945Z,100714.41
2024-01-11T10:10:08.751Z,100703.31
2024-01-11T10:12:40.734Z,100674.47
2024-01-11T10:15:13.104Z,100687.41
2024-01-11T10:17:46.162Z,100652.75
2024-01-11T10:20:25.920Z,100672.16
2024-01-11T10:22:58.310Z,100683.84
2024-01-11T10:25:30.359Z,100648.47
2024-01-11T10:28:02.313Z,100660.28
2024-01-11T10:30:35.352Z,100675.47
2024-01-11T10:33:09.074Z,100677.97
2024-01-11T10:35:41.108Z,100675.53
2024-01-11T10:38:13.672Z,100674.53
2024-01-11T10:40:46.169Z,100681.19
2024-01-11T10:43:23.216Z,100661.03
2024-01-11T10:46:00.832Z,100657.63
2024-01-11T10:48:35.709Z,100639.13
2024-01-11T10:51:14.017Z,100648.25
2024-01-11T10:53:47.749Z,100666.09
2024-01-11T10:56:21.697Z,100661.00
2024-01-11T10:58:55.865Z,100649.25
2024-01-11T11:01:28.578Z,100653.31
2024-01-11T11:04:01.595Z,100669.47
2024-01-11T11:06:35.834Z,100622.81
2024-01-11T11:09:09.260Z,100632.06
2024-01-11T11:11:41.980Z,100648.88
2024-01-11T11:14:16.479Z,100621.03
2024-01-11T11:16:48.569Z,100599.06
2024-01-11T11:19:23.316Z,100629.38
2024-01-11T11:21:55.576Z,100617.63
2024-01-11T11:24:27.593Z,100618.38
2024-01-11T11:27:00.609Z,100624.97
2024-01-11T11:29:32.653Z,100628.25
2024-01-11T11:32:06.130Z,100610.47
2024-01-11T11:34:46.365Z,100615.63
2024-01-11T11:37:25.003Z,100624.94
2024-01-11T11:39:59.229Z,100583.56
2024-01-11T11:42:32.375Z,100617.38
2024-01-11T11:45:04.666Z,100604.66
2024-01-11T11:47:38.761Z,100594.63
2024-01-11T11:50:13.129Z,100588.72
2024-01-11T11:52:46.331Z,100583.16
2024-01-11T11:55:18.704Z,100600.97
2024-01-11T11:57:51.623Z,100565.41
2024-01-11T12:00:25.012Z,100578.81
2024-01-11T12:02:59.366Z,100550.38
2024-01-11T12:05:31.386Z,100557.91
2024-01-11T12:08:03.836Z,100594.91
2024-01-11T12:10:35.821Z,100570.47
2024-01-11T12:13:07.980Z,100584.06
2024-01-11T12:15:40.285Z,100591.78
2024-01-11T12:18:12.311Z,100553.84
2024-01-11T12:20:44.650Z,100590.16
2024-01-11T12:23:17.352Z,100562.41
2024-01-11T12:25:49.379Z,100570.66
2024-01-11T12:28:21.359Z,100554.69
2024-01-11T12:30:53.451Z,100555.50
2024-01-11T12:33:27.602Z,100580.75
2024-01-11T12:35:59.782Z,100574.78
2024-01-11T12:38:31.758Z,100585.91
2024-01-11T12:41:05.252Z,100563.72
2024-01-11T12:43:37.410Z,100541.88
2024-01-11T12:46:09.474Z,100552.06
2024-01-11T12:48:41.617Z,100538.44
2024-01-11T12:51:17.871Z,100549.28
2024-01-11T12:53:54.972Z,100577.97
2024-01-11T12:56:27.212Z,100572.72
2024-01-11T12:59:10.084Z,100577.75
2024-01-11T13:01:42.378Z,100568.59
2024-01-11T13:04:14.422Z,100569.03
2024-01-11T13:06:46.391Z,100573.59
2024-01-11T13:09:19.170Z,100560.81
2024-01-11T13:11:51.425Z,100577.84
2024-01-11T13:14:24.561Z,100555.94
2024-01-11T13:16:56.584Z,100558.28
2024-01-11T13:19:28.619Z,100577.69
2024-01-11T13:22:00.663Z,100561.56
2024-01-11T13:24:32.906Z,100540.59
2024-01-11T13:27:05.171Z,100537.03
2024-01-11T13:29:37.484Z,100523.75
2024-01-11T13:32:12.059Z,100546.25
2024-01-11T13:34:44.073Z,100550.41
2024-01-11T13:37:16.032Z,100560.50
2024-01-11T13:39:48.018Z,100570.50
2024-01-11T13:42:19.889Z,100569.91
2024-01-11T13:44:52.482Z,100568.22
2024-01-11T13:47:24.514Z,100558.88
2024-01-11T13:49:56.607Z,100547.88
2024-01-11T13:52:28.504Z,100532.75
2024-01-11T13:55:01.757Z,100551.09
2024-01-11T13:57:35.316Z,100519.06
2024-01-11T14:00:07.947Z,100524.28
2024-01-11T14:02:41.046Z,100525.56
2024-01-11T14:05:15.005Z,100533.31
2024-01-11T14:07:47.973Z,100531.69
2024-01-11T14:10:20.019Z,100518.00
2024-01-11T14:12:52.082Z,100487.06
2024-01-11T14:15:24.487Z,100490.50
2024-01-11T14:17:56.449Z,100475.03
2024-01-11T14:20:29.005Z,100499.47
2024-01-11T14:23:01.174Z,100469.03
2024-01-11T14:25:33.121Z,100499.97
2024-01-11T14:28:06.252Z,100451.16
2024-01-11T14:30:38.690Z,100462.34
2024-01-11T14:33:10.659Z,100496.84
2024-01-11T14:35:42.621Z,100527.03
2024-01-11T14:38:14.636Z,100513.66
2024-01-11T14:40:46.826Z,100482.56
2024-01-11T14:43:18.700Z,100527.81
2024-01-11T14:45:52.168Z,100520.34
2024-01-11T14:48:26.030Z,100527.09
2024-01-11T14:51:00.883Z,100521.22
2024-01-11T14:53:32.815Z,100537.91
2024-01-11T14:56:04.930Z,100515.16
2024-01-11T14:58:36.784Z,100515.94
2024-01-11T15:01:09.317Z,100546.34
2024-01-11T15:03:41.443Z,100537.22
2024-01-11T15:06:13.939Z,100519.19
2024-01-11T15:08:45.890Z,100540.34
2024-01-11T15:11:17.806Z,100550.31
2024-01-11T15:13:49.742Z,100531.84
2024-01-11T15:16:21.628Z,100539.28
2024-01-11T15:18:53.565Z,100541.81
2024-01-11T15:21:25.507Z,100538.63
2024-01-11T15:23:58.765Z,100567.91
2024-01-11T15:26:30.765Z,100547.78
2024-01-11T15:29:02.792Z,100538.31
2024-01-11T15:31:37.717Z,100536.59
2024-01-11T15:34:09.847Z,100562.88
2024-01-11T15:36:41.896Z,100525.75
2024-01-11T15:39:21.825Z,100559.97
2024-01-11T15:42:00.053Z,100559.16
2024-01-11T15:44:33.374Z,100506.09
2024-01-11T15:47:05.582Z,100558.19
2024-01-11T15:49:38.608Z,100546.63
2024-01-11T15:52:11.363Z,100557.56
2024-01-11T15:54:43.218Z,100526.22
2024-01-11T15:57:17.802Z,100566.75
2024-01-11T15:59:51.158Z,100539.97
2024-01-11T16:02:23.133Z,100573.53
2024-01-11T16:04:54.978Z,100549.94
2024-01-11T16:07:26.864Z,100522.97
2024-01-11T16:09:58.809Z,100569.16
2024-01-11T16:12:30.920Z,100562.53
2024-01-11T16:15:02.893Z,100475.09
2024-01-11T16:17:34.914Z,100568.31
2024-01-11T16:20:08.363Z,100559.00
2024-01-11T16:22:40.547Z,100551.25
2024-01-11T16:25:12.398Z,100548.81
2024-01-11T16:27:44.277Z,100568.97
2024-01-11T16:30:16.463Z,100572.34
2024-01-11T16:32:48.390Z,100573.16
2024-01-11T16:35:21.506Z,100547.16
2024-01-11T16:37:53.480Z,100568.88
2024-01-11T16:40:25.333Z,100557.03
2024-01-11T16:42:57.211Z,100567.16
2024-01-11T16:45:30.258Z,100551.28
2024-01-11T16:48:06.074Z,100582.38
2024-01-11T16:50:38.147Z,100565.44
2024-01-11T16:53:10.244Z,100555.28
2024-01-11T16:55:42.533Z,100567.78
2024-01-11T16:58:14.781Z,100550.13
2024-01-11T17:00:46.893Z,100561.03
2024-01-11T17:03:19.324Z,100543.94
2024-01-11T17:05:51.313Z,100581.13
2024-01-11T17:08:23.306Z,100577.66
2024-01-11T17:10:55.172Z,100567.56
2024-01-11T17:13:28.130Z,100574.06
2024-01-11T17:16:01.096Z,100568.88
2024-01-11T17:18:36.268Z,100566.50
2024-01-11T17:21:09.003Z,100554.53
2024-01-11T17:23:41.106Z,100565.41
2024-01-11T17:26:13.260Z,100563.91
2024-01-11T17:28:45.269Z,100560.31
2024-01-11T17:31:17.182Z,100571.44
2024-01-11T17:33:49.266Z,100565.47
2024-01-11T17:36:21.246Z,100554.81
2024-01-11T17:38:53.127Z,100580.66
2024-01-11T17:41:25.269Z,100553.75
2024-01-11T17:43:57.210Z,100598.19
2024-01-11T17:46:29.541Z,100602.44
2024-01-11T17:49:01.612Z,100582.22
2024-01-11T17:51:33.581Z,100594.66
2024-01-11T17:54:05.582Z,100569.34
2024-01-11T17:56:42.001Z,100591.34
2024-01-11T17:59:14.028Z,100598.47
2024-01-11T18:01:46.236Z,100580.13
2024-01-11T18:04:19.927Z,100606.34
2024-01-11T18:06:52.326Z,100605.44
2024-01-11T18:09:24.237Z,100609.88
2024-01-11T18:11:56.217Z,100581.00
2024-01-11T18:14:28.202Z,100574.44
2024-01-11T18:17:00.099Z,100598.00
2024-01-11T18:19:32.054Z,100608.06
2024-01-11T18:22:04.017Z,100590.28
2024-01-11T18:24:36.553Z,100598.84
2024-01-11T18:27:09.691Z,100587.91
2024-01-11T18:29:41.748Z,100601.03
2024-01-11T18:32:14.209Z,100606.34
2024-01-11T18:34:46.794Z,100615.34
2024-01-11T18:37:20.393Z,100596.03
2024-01-11T18:39:52.293Z,100580.31
2024-01-11T18:42:25.117Z,100606.25
2024-01-11T18:44:59.245Z,100566.00
2024-01-11T18:47:32.994Z,100578.59
2024-01-11T18:50:05.970Z,100597.13
2024-01-11T18:52:38.022Z,100612.41
2024-01-11T18:55:16.662Z,100585.50
2024-01-11T18:57:49.577Z,100610.84
2024-01-11T19:00:21.643Z,100604.88
2024-01-11T19:02:53.817Z,100610.63
2024-01-11T19:05:26.192Z,100607.66
2024-01-11T19:07:58.584Z,100648.84
2024-01-11T19:10:30.677Z,100597.19
2024-01-11T19:13:03.149Z,100630.94
2024-01-11T19:15:37.689Z,100596.50
2024-01-11T19:18:10.078Z,100648.81
2024-01-11T19:20:42.414Z,100603.50
2024-01-11T19:23:14.348Z,100648.09
2024-01-11T19:25:46.650Z,100607.66
2024-01-11T19:28:18.612Z,100642.34
2024-01-11T19:30:52.137Z,100670.19
2024-01-11T19:33:24.198Z,100682.63
2024-01-11T19:35:58.235Z,100677.56
2024-01-11T19:38:30.259Z,100692.06
2024-01-11T19:41:02.232Z,100663.69
2024-01-11T19:43:34.803Z,100688.25
2024-01-11T19:46:06.732Z,100698.59
2024-01-11T19:48:38.733Z,100684.31
2024-01-11T19:51:11.816Z,100698.09
2024-01-11T19:53:43.820Z,100656.19
2024-01-11T19:56:19.988Z,100671.34
2024-01-11T19:58:52.566Z,100709.28
2024-01-11T20:01:24.506Z,100713.69
2024-01-11T20:04:01.149Z,100719.56
2024-01-11T20:06:33.293Z,100704.50
2024-01-11T20:09:05.522Z,100736.63
2024-01-11T20:11:37.471Z,100717.28
2024-01-11T20:14:09.615Z,100737.69
2024-01-11T20:16:41.575Z,100734.38
2024-01-11T20:19:13.849Z,100699.13
2024-01-11T20:21:45.744Z,100740.28
2024-01-11T20:24:17.601Z,100742.97
2024-01-11T20:26:49.522Z,100728.66
2024-01-11T20:29:21.450Z,100745.66
2024-01-11T20:31:53.633Z,100752.41
2024-01-11T20:34:25.722Z,100761.00
2024-01-11T20:36:57.826Z,100763.47
2024-01-11T20:39:29.882Z,100776.25
2024-01-11T20:42:01.829Z,100763.72
2024-01-11T20:44:37.506Z,100775.59
2024-01-11T20:47:09.619Z,100774.75
2024-01-11T20:49:41.674Z,100773.19
2024-01-11T20:52:13.908Z,100781.69
2024-01-11T20:54:46.156Z,100798.63
2024-01-11T20:57:18.867Z,100786.00
2024-01-11T20:59:50.879Z,100797.84
2024-01-11T21:02:22.925Z,100781.84
2024-01-11T21:04:55.005Z,100787.81
2024-01-11T21:07:26.888Z,100814.91
2024-01-11T21:09:59.465Z,100804.78
2024-01-11T21:12:31.344Z,100805.72
2024-01-11T21:15:04.213Z,100754.19
2024-01-11T21:17:37.345Z,100809.06
2024-01-11T21:20:10.998Z,100819.22
2024-01-11T21:22:43.531Z,100827.66
2024-01-11T21:25:15.523Z,100827.78
2024-01-11T21:27:47.501Z,100819.41
2024-01-11T21:30:19.751Z,100811.13
2024-01-11T21:32:51.748Z,100833.03
2024-01-11T21:35:23.777Z,100824.63
2024-01-11T21:37:55.655Z,100820.47
2024-01-11T21:40:27.750Z,100806.97
2024-01-11T21:42:59.649Z,100851.72
2024-01-11T21:45:31.549Z,100833.28
2024-01-11T21:48:03.533Z,100837.56
2024-01-11T21:50:35.654Z,100854.50
2024-01-11T21:53:07.600Z,100861.25
2024-01-11T21:55:40.202Z,100848.63
2024-01-11T21:58:12.068Z,100840.22
2024-01-11T22:00:43.978Z,100833.53
2024-01-11T22:03:15.930Z,100827.56
2024-01-11T22:05:48.012Z,100874.94
2024-01-11T22:08:21.536Z,100837.75
2024-01-11T22:10:55.647Z,100882.56
2024-01-11T22:13:27.588Z,100891.91
2024-01-11T22:16:00.766Z,100891.91
2024-01-11T22:18:32.768Z,100890.25
2024-01-11T22:21:07.117Z,100893.66
2024-01-11T22:23:39.621Z,100861.59
2024-01-11T22:26:11.572Z,100826.16
2024-01-11T22:28:43.448Z,100882.69
2024-01-11T22:31:15.739Z,100898.81
2024-01-11T22:33:48.146Z,100890.44
2024-01-11T22:36:20.169Z,100892.16
2024-01-11T22:38:52.116Z,100880.34
2024-01-11T22:41:24.324Z,100905.69
2024-01-11T22:43:56.299Z,100931.88
2024-01-11T22:46:28.330Z,100939.50
2024-01-11T22:49:04.242Z,100929.38
2024-01-11T22:51:36.320Z,100899.84
2024-01-11T22:54:08.818Z,100932.00
2024-01-11T22:56:40.733Z,100897.38
2024-01-11T22:59:13.338Z,100932.88
2024-01-11T23:01:45.418Z,100946.38
2024-01-11T23:04:17.437Z,100925.22
2024-01-11T23:06:49.561Z,100946.34
2024-01-11T23:09:21.581Z,100929.47
2024-01-11T23:11:53.990Z,100959.06
2024-01-11T23:14:26.349Z,100959.97
2024-01-11T23:16:58.255Z,100955.75
2024-01-11T23:19:30.211Z,100942.22
2024-01-11T23:22:02.182Z,100974.38
2024-01-11T23:24:34.071Z,100947.34
2024-01-11T23:27:07.276Z,100951.56
2024-01-11T23:29:39.199Z,100944.81
2024-01-11T23:32:12.103Z,100972.72
2024-01-11T23:34:44.102Z,100976.03
2024-01-11T23:37:17.747Z,100984.50
2024-01-11T23:39:49.665Z,100957.44
2024-01-11T23:42:21.637Z,100957.47
2024-01-11T23:44:53.635Z,100983.63
2024-01-11T23:47:25.748Z,100932.09
2024-01-11T23:49:57.839Z,101002.31
2024-01-11T23:52:30.025Z,100998.09
2024-01-11T23:55:02.008Z,100965.13
2024-01-11T23:57:33.953Z,100981.16
